Time;durP1;ratioP1;P1;durP2;ratioP2;P2;SDS_P1;SDS_P2;PMS_P1;PMS_P2;Temp;Humidity;BMP_temperature;BMP_pressure;BME280_temperature;BME280_humidity;BME280_pressure;Samples;Min_cycle;Max_cycle;Signal;HPM_P1;HPM_P2
2021/12/18 00:02:06;;;;;;;14.73;13.43;;;5.40;89.10;;;;;;5039535;28;20197;-88
2021/12/18 00:04:32;;;;;;;13.77;12.37;;;5.30;89.80;;;;;;5048031;28;20196;-88
2021/12/18 00:06:58;;;;;;;15.10;13.60;;;5.20;90.40;;;;;;5058222;28;20220;-88
2021/12/18 00:09:31;;;;;;;14.13;12.83;;;5.10;91.20;;;;;;5055591;28;20253;-88
2021/12/18 00:12:00;;;;;;;14.77;13.27;;;5.00;91.80;;;;;;5063373;28;20188;-88
2021/12/18 00:14:26;;;;;;;15.70;13.10;;;5.00;92.20;;;;;;5037317;28;20552;-88
2021/12/18 00:16:52;;;;;;;14.20;12.63;;;4.90;92.40;;;;;;5056988;28;20212;-88
2021/12/18 00:19:24;;;;;;;13.77;12.37;;;5.00;92.70;;;;;;5054268;28;20208;-88
2021/12/18 00:21:50;;;;;;;14.30;12.90;;;4.90;93.10;;;;;;5049351;28;20203;-88
2021/12/18 00:24:15;;;;;;;13.97;12.57;;;4.90;93.20;;;;;;5034680;28;20216;-88
2021/12/18 00:26:41;;;;;;;15.53;13.93;;;4.90;93.10;;;;;;5063084;28;20230;-89
2021/12/18 00:29:07;;;;;;;13.97;12.47;;;4.90;93.20;;;;;;5058468;28;20635;-87
2021/12/18 00:31:33;;;;;;;13.27;11.97;;;4.90;93.40;;;;;;5043663;28;20246;-87
2021/12/18 00:33:58;;;;;;;15.23;13.67;;;4.90;93.20;;;;;;5070467;28;20188;-89
2021/12/18 00:36:24;;;;;;;15.30;13.73;;;4.90;93.20;;;;;;5053593;28;20251;-88
2021/12/18 00:38:50;;;;;;;15.37;13.77;;;4.90;93.10;;;;;;5060245;28;20177;-88
2021/12/18 00:41:35;;;;;;;14.43;13.03;;;4.90;92.90;;;;;;5056891;28;20192;-89
2021/12/18 00:44:02;;;;;;;14.60;13.07;;;5.00;93.70;;;;;;5037389;28;20211;-88
2021/12/18 00:46:33;;;;;;;15.07;13.47;;;5.00;92.30;;;;;;5039090;28;20699;-88
2021/12/18 00:48:59;;;;;;;13.47;12.07;;;4.90;92.50;;;;;;5058996;28;20192;-88
2021/12/18 00:51:25;;;;;;;13.73;12.33;;;4.90;93.10;;;;;;5054030;28;20190;-88
2021/12/18 00:53:51;;;;;;;14.43;12.80;;;4.90;93.40;;;;;;5039823;28;20270;-88
2021/12/18 00:56:17;;;;;;;14.20;12.80;;;4.90;93.30;;;;;;5055199;28;20816;-88
2021/12/18 00:58:43;;;;;;;14.80;13.30;;;4.90;93.10;;;;;;5055671;28;20337;-88
2021/12/18 01:01:10;;;;;;;14.63;13.13;;;4.80;92.90;;;;;;5032183;28;20199;-88
2021/12/18 01:03:39;;;;;;;14.37;12.87;;;4.80;93.20;;;;;;5059715;28;20188;-88
2021/12/18 01:06:05;;;;;;;13.33;12.03;;;4.80;93.10;;;;;;5041731;28;20219;-88
2021/12/18 01:08:31;;;;;;;15.83;13.80;;;4.70;93.60;;;;;;5032992;28;20187;-88
2021/12/18 01:13:28;;;;;;;15.80;14.17;;;4.60;94.30;;;;;;5056705;28;20188;-87
2021/12/18 01:15:57;;;;;;;16.23;14.47;;;4.50;94.60;;;;;;5039770;28;20212;-89
2021/12/18 01:23:51;;;;;;;16.00;14.40;;;4.50;95.20;;;;;;5066489;28;20251;-89
2021/12/18 01:26:18;;;;;;;16.07;14.20;;;4.40;95.50;;;;;;5064152;28;20220;-88
2021/12/18 01:28:46;;;;;;;14.70;13.10;;;4.40;95.80;;;;;;5030520;28;20736;-89
2021/12/18 01:31:11;;;;;;;16.13;14.20;;;4.40;96.20;;;;;;5052443;28;20232;-89
2021/12/18 01:33:37;;;;;;;15.50;13.87;;;4.50;96.40;;;;;;5039810;28;20185;-88
2021/12/18 01:36:03;;;;;;;16.67;14.87;;;4.40;95.70;;;;;;5026051;28;20220;-88
2021/12/18 01:38:30;;;;;;;15.77;14.10;;;4.40;95.90;;;;;;5061797;28;20227;-89
2021/12/18 01:40:57;;;;;;;16.83;14.70;;;4.40;96.00;;;;;;5060838;28;20346;-88
2021/12/18 01:51:31;;;;;;;16.00;14.30;;;4.50;96.10;;;;;;5058508;28;20221;-88
2021/12/18 01:53:57;;;;;;;15.50;13.90;;;4.40;95.30;;;;;;5040926;28;20202;-88
2021/12/18 01:56:25;;;;;;;16.63;14.40;;;4.50;95.70;;;;;;5062674;28;20220;-88
2021/12/18 01:58:52;;;;;;;17.30;13.90;;;4.40;95.60;;;;;;5052782;28;20192;-88
2021/12/18 02:01:18;;;;;;;16.47;14.83;;;4.40;95.30;;;;;;5056551;28;20192;-88
2021/12/18 02:03:45;;;;;;;17.70;14.80;;;4.40;95.40;;;;;;5063480;28;20595;-88
2021/12/18 02:06:12;;;;;;;14.63;13.03;;;4.30;95.90;;;;;;5056152;28;20203;-89
2021/12/18 02:08:39;;;;;;;17.00;15.20;;;4.30;96.10;;;;;;5059226;28;20189;-87
2021/12/18 02:21:36;;;;;;;18.27;16.00;;;4.10;96.80;;;;;;5057448;28;20202;-89
2021/12/18 02:24:02;;;;;;;16.50;14.77;;;4.20;96.70;;;;;;5038157;28;20204;-87
2021/12/18 02:26:28;;;;;;;16.17;14.43;;;4.10;97.20;;;;;;5042961;28;20273;-88
2021/12/18 02:28:57;;;;;;;16.53;14.40;;;4.10;97.30;;;;;;5056969;28;20192;-88
2021/12/18 02:31:23;;;;;;;16.47;14.63;;;4.20;97.10;;;;;;5052548;28;20181;-88
2021/12/18 02:33:49;;;;;;;16.63;13.80;;;4.10;96.90;;;;;;5062136;28;20188;-88
2021/12/18 02:36:23;;;;;;;19.63;15.43;;;4.10;97.40;;;;;;5042692;28;20226;-88
2021/12/18 02:41:38;;;;;;;16.67;14.60;;;4.00;97.50;;;;;;5054969;28;20250;-88
2021/12/18 02:44:08;;;;;;;17.00;14.83;;;4.00;97.70;;;;;;5055116;28;20933;-88
2021/12/18 02:46:34;;;;;;;17.27;15.07;;;4.00;98.10;;;;;;5059290;28;20238;-89
2021/12/18 02:49:07;;;;;;;16.43;14.37;;;4.00;98.20;;;;;;5055133;28;20239;-88
2021/12/18 02:51:32;;;;;;;16.97;14.40;;;3.90;98.40;;;;;;5053202;28;20551;-88
2021/12/18 02:53:58;;;;;;;16.70;14.67;;;3.90;98.80;;;;;;5054213;28;20339;-88
2021/12/18 02:56:24;;;;;;;18.40;14.73;;;3.90;98.80;;;;;;5048988;28;20203;-88
2021/12/18 02:58:53;;;;;;;16.50;14.70;;;4.00;98.30;;;;;;5045517;28;20279;-87
2021/12/18 03:01:22;;;;;;;18.33;14.77;;;4.00;98.50;;;;;;5043278;28;20199;-87
2021/12/18 03:03:49;;;;;;;18.70;15.40;;;4.00;98.80;;;;;;5053915;28;20211;-88
2021/12/18 03:22:54;;;;;;;17.93;15.33;;;3.90;99.50;;;;;;5072733;28;20199;-89
2021/12/18 03:25:25;;;;;;;18.67;15.93;;;3.90;99.50;;;;;;5066709;28;20227;-88
2021/12/18 03:27:52;;;;;;;21.50;16.60;;;3.90;99.70;;;;;;5053303;28;20196;-88
2021/12/18 03:30:19;;;;;;;17.80;15.20;;;3.90;99.30;;;;;;5062289;28;20226;-88
2021/12/18 03:32:45;;;;;;;19.63;15.50;;;3.90;99.30;;;;;;5057012;28;20252;-88
2021/12/18 03:35:13;;;;;;;19.57;16.00;;;3.90;99.30;;;;;;5061227;28;20180;-88
2021/12/18 03:37:39;;;;;;;18.13;15.57;;;3.90;99.00;;;;;;5062120;28;20181;-89
2021/12/18 03:40:08;;;;;;;22.77;16.83;;;3.90;99.00;;;;;;5062307;28;20260;-89
2021/12/18 03:42:34;;;;;;;19.93;15.97;;;3.90;99.30;;;;;;5067806;28;20219;-88
2021/12/18 03:45:00;;;;;;;19.40;16.33;;;3.90;99.20;;;;;;5032101;28;20193;-86
2021/12/18 03:47:26;;;;;;;20.57;17.03;;;3.90;99.00;;;;;;5055526;28;20231;-87
2021/12/18 03:49:51;;;;;;;17.67;15.53;;;3.90;99.00;;;;;;5057903;28;20210;-87
2021/12/18 03:52:17;;;;;;;16.13;14.23;;;3.90;99.10;;;;;;5054556;28;20200;-87
2021/12/18 03:54:43;;;;;;;18.40;14.67;;;4.00;98.80;;;;;;5053936;28;20244;-87
2021/12/18 03:57:09;;;;;;;18.80;15.50;;;3.90;99.00;;;;;;5035709;28;20224;-87
2021/12/18 03:59:34;;;;;;;20.53;15.30;;;3.90;98.90;;;;;;5051135;28;20619;-87
2021/12/18 04:02:00;;;;;;;18.00;14.43;;;4.00;99.00;;;;;;5052795;28;20674;-88
2021/12/18 04:04:26;;;;;;;16.23;14.53;;;4.00;99.00;;;;;;5057666;28;20207;-87
2021/12/18 04:06:52;;;;;;;17.73;14.57;;;4.00;98.80;;;;;;5024340;28;20290;-87
2021/12/18 04:09:18;;;;;;;17.67;15.30;;;4.00;98.40;;;;;;5047783;28;20207;-87
2021/12/18 04:11:44;;;;;;;20.57;15.27;;;4.00;98.60;;;;;;5061165;28;20188;-86
2021/12/18 04:14:11;;;;;;;18.63;15.93;;;3.90;98.80;;;;;;5054578;28;20821;-87
2021/12/18 04:16:38;;;;;;;19.70;15.33;;;4.00;98.80;;;;;;5054284;28;20212;-87
2021/12/18 04:19:04;;;;;;;17.37;14.50;;;3.90;98.50;;;;;;5029330;28;20188;-87
2021/12/18 04:21:31;;;;;;;20.17;15.87;;;4.00;98.20;;;;;;5056486;28;20564;-87
2021/12/18 04:23:57;;;;;;;21.03;17.47;;;3.90;98.70;;;;;;5040524;28;20257;-87
2021/12/18 04:26:23;;;;;;;17.60;14.47;;;4.00;97.70;;;;;;5052811;28;20215;-87
2021/12/18 04:28:49;;;;;;;15.80;14.07;;;4.00;98.70;;;;;;5065389;28;20406;-87
2021/12/18 04:31:15;;;;;;;18.43;15.40;;;4.00;98.90;;;;;;5058107;28;20189;-87
2021/12/18 04:33:41;;;;;;;17.27;14.83;;;4.10;98.00;;;;;;5036922;28;20188;-87
2021/12/18 04:36:07;;;;;;;19.00;15.77;;;4.10;97.80;;;;;;5058348;28;20208;-87
2021/12/18 04:38:33;;;;;;;16.90;14.53;;;4.20;97.60;;;;;;5053864;28;20238;-87
2021/12/18 04:41:00;;;;;;;18.57;15.50;;;4.20;97.80;;;;;;5047848;28;20685;-87
2021/12/18 04:43:26;;;;;;;17.37;14.47;;;4.10;98.00;;;;;;5048892;28;20414;-87
2021/12/18 04:45:52;;;;;;;18.47;15.33;;;4.10;98.30;;;;;;5054790;28;20215;-87
2021/12/18 04:48:18;;;;;;;20.37;15.33;;;4.10;97.80;;;;;;5034269;28;20192;-87
2021/12/18 04:50:44;;;;;;;18.97;15.40;;;4.10;97.90;;;;;;5038629;28;20191;-87
2021/12/18 04:53:10;;;;;;;18.30;15.13;;;4.10;98.00;;;;;;5055700;28;20189;-87
2021/12/18 04:55:36;;;;;;;17.57;15.00;;;4.20;97.70;;;;;;5056879;28;20201;-87
2021/12/18 04:58:02;;;;;;;18.40;14.60;;;4.10;97.70;;;;;;5040830;28;20209;-87
2021/12/18 05:00:37;;;;;;;16.43;13.80;;;4.10;98.00;;;;;;5051579;28;20796;-87
2021/12/18 05:03:06;;;;;;;19.73;15.03;;;4.10;98.20;;;;;;5057424;28;20191;-87
2021/12/18 05:05:33;;;;;;;18.10;14.77;;;4.00;97.90;;;;;;5046744;28;20215;-87
2021/12/18 05:07:59;;;;;;;17.77;14.57;;;4.10;97.90;;;;;;5052434;28;20277;-87
2021/12/18 05:10:25;;;;;;;15.83;13.67;;;4.10;97.80;;;;;;5054799;28;20219;-88
2021/12/18 05:12:50;;;;;;;18.17;14.33;;;4.10;98.00;;;;;;5035624;28;20604;-87
2021/12/18 05:15:16;;;;;;;18.20;14.83;;;4.10;97.60;;;;;;5042483;28;20184;-88
2021/12/18 05:17:42;;;;;;;18.30;14.93;;;4.10;97.90;;;;;;5062010;28;20192;-87
2021/12/18 05:20:08;;;;;;;17.53;14.63;;;4.20;97.50;;;;;;5060929;28;20247;-88
2021/12/18 05:22:34;;;;;;;18.30;14.20;;;4.20;97.60;;;;;;5056388;28;20196;-88
2021/12/18 05:25:00;;;;;;;19.00;15.07;;;4.10;97.50;;;;;;5062313;28;20615;-88
2021/12/18 05:27:25;;;;;;;17.60;14.60;;;4.10;97.90;;;;;;5054716;28;20192;-87
2021/12/18 05:29:51;;;;;;;21.73;14.83;;;4.10;97.80;;;;;;5055960;28;20195;-88
2021/12/18 05:32:17;;;;;;;17.90;14.93;;;4.00;97.80;;;;;;5051592;28;20189;-87
2021/12/18 05:34:43;;;;;;;19.53;14.90;;;4.00;97.70;;;;;;5055791;28;20189;-87
2021/12/18 05:37:16;;;;;;;18.83;14.63;;;3.90;98.40;;;;;;5051598;28;20208;-88
2021/12/18 05:39:43;;;;;;;20.17;14.50;;;4.00;98.40;;;;;;5040920;28;20715;-87
2021/12/18 05:42:08;;;;;;;18.03;14.70;;;4.00;98.50;;;;;;5042573;28;20540;-87
2021/12/18 05:44:35;;;;;;;18.27;14.50;;;4.00;98.30;;;;;;5051415;28;20230;-87
2021/12/18 05:47:01;;;;;;;20.00;15.97;;;4.00;98.10;;;;;;5055174;28;20578;-88
2021/12/18 05:49:27;;;;;;;17.73;14.60;;;4.10;98.50;;;;;;5059902;28;20249;-88
2021/12/18 05:51:52;;;;;;;17.47;15.57;;;4.00;98.10;;;;;;5060317;28;20727;-88
2021/12/18 05:54:18;;;;;;;19.33;14.53;;;4.00;97.90;;;;;;5062608;28;20188;-89
2021/12/18 05:56:44;;;;;;;18.43;14.47;;;4.00;97.80;;;;;;5059975;28;20200;-89
2021/12/18 05:59:10;;;;;;;18.57;14.60;;;4.00;97.80;;;;;;5076264;28;20207;-86
2021/12/18 06:01:36;;;;;;;17.97;13.73;;;4.00;98.40;;;;;;5081259;28;20180;-86
2021/12/18 06:04:02;;;;;;;18.13;14.43;;;4.00;98.20;;;;;;5060685;28;20267;-87
2021/12/18 06:06:30;;;;;;;17.20;13.67;;;4.10;98.10;;;;;;5066859;28;20292;-88
2021/12/18 06:08:56;;;;;;;18.30;14.23;;;4.10;97.80;;;;;;5069229;28;20164;-89
2021/12/18 06:11:23;;;;;;;18.90;15.10;;;4.10;98.00;;;;;;5072208;28;20190;-88
2021/12/18 06:13:51;;;;;;;17.63;13.93;;;4.10;97.60;;;;;;5061469;28;20188;-88
2021/12/18 06:16:18;;;;;;;18.50;14.23;;;4.10;98.10;;;;;;5060436;28;20262;-88
2021/12/18 06:18:47;;;;;;;18.40;15.10;;;4.10;97.80;;;;;;5060187;28;20195;-89
2021/12/18 06:21:15;;;;;;;17.77;14.23;;;4.10;97.90;;;;;;5059975;28;20218;-88
2021/12/18 06:23:51;;;;;;;18.63;14.67;;;4.10;97.60;;;;;;5057137;28;20199;-88
2021/12/18 06:26:18;;;;;;;19.23;15.37;;;4.10;98.20;;;;;;5052461;28;20215;-88
2021/12/18 06:28:44;;;;;;;16.30;13.30;;;4.10;98.20;;;;;;5055772;28;20192;-88
2021/12/18 06:31:10;;;;;;;18.63;13.50;;;4.10;97.60;;;;;;5049377;28;20549;-88
2021/12/18 06:33:36;;;;;;;18.30;14.20;;;4.00;97.60;;;;;;5051372;28;20194;-88
2021/12/18 06:36:02;;;;;;;19.13;13.87;;;4.10;98.00;;;;;;5040060;28;20216;-88
2021/12/18 06:38:27;;;;;;;19.57;14.30;;;4.10;97.90;;;;;;5039073;28;20223;-88
2021/12/18 06:40:53;;;;;;;17.53;13.80;;;4.10;97.80;;;;;;5060693;28;20204;-89
2021/12/18 06:43:19;;;;;;;18.37;14.53;;;4.20;97.60;;;;;;5056650;28;20455;-89
2021/12/18 06:45:45;;;;;;;20.03;14.97;;;4.10;97.60;;;;;;5052699;28;20221;-88
2021/12/18 06:48:11;;;;;;;16.23;13.83;;;4.10;97.60;;;;;;5050580;28;20227;-88
2021/12/18 06:50:37;;;;;;;19.03;14.33;;;4.20;97.70;;;;;;5039753;28;20204;-89
2021/12/18 06:53:04;;;;;;;18.43;15.03;;;4.20;97.10;;;;;;5035748;28;20199;-88
2021/12/18 06:55:30;;;;;;;17.37;13.53;;;4.20;97.30;;;;;;5055516;28;20887;-88
2021/12/18 06:57:56;;;;;;;19.53;14.63;;;4.20;97.20;;;;;;5036849;28;20259;-88
2021/12/18 07:00:23;;;;;;;19.37;14.13;;;4.20;97.80;;;;;;5054435;28;20224;-88
2021/12/18 07:02:49;;;;;;;18.93;14.97;;;4.10;97.70;;;;;;5051462;28;20204;-88
2021/12/18 07:05:16;;;;;;;15.43;12.93;;;4.10;97.80;;;;;;5045220;28;20218;-89
2021/12/18 07:07:42;;;;;;;19.33;14.87;;;4.10;97.40;;;;;;5027990;28;20188;-89
2021/12/18 07:10:10;;;;;;;18.50;14.03;;;4.10;97.60;;;;;;5040021;28;20188;-88
2021/12/18 07:12:36;;;;;;;19.53;15.17;;;4.10;97.80;;;;;;5035847;28;20681;-88
2021/12/18 07:15:04;;;;;;;16.47;12.70;;;4.10;97.30;;;;;;5048476;28;20352;-87
2021/12/18 07:17:30;;;;;;;18.97;15.17;;;4.10;97.80;;;;;;5024379;28;20189;-88
2021/12/18 07:19:56;;;;;;;19.07;13.43;;;4.10;97.60;;;;;;5041790;28;20188;-88
2021/12/18 07:22:21;;;;;;;18.10;13.90;;;4.10;97.20;;;;;;5044344;28;20233;-89
2021/12/18 07:24:47;;;;;;;18.30;14.03;;;4.10;97.30;;;;;;5044376;28;20597;-89
2021/12/18 07:27:13;;;;;;;19.33;13.47;;;4.00;98.50;;;;;;5071538;28;20268;-89
2021/12/18 07:29:39;;;;;;;16.40;13.33;;;3.90;97.70;;;;;;5063217;28;20175;-88
2021/12/18 07:32:05;;;;;;;16.10;13.40;;;4.00;98.10;;;;;;5063106;28;20233;-88
2021/12/18 07:34:31;;;;;;;17.87;14.07;;;3.90;97.70;;;;;;5081696;28;20176;-88
2021/12/18 07:36:57;;;;;;;17.70;14.50;;;3.90;98.10;;;;;;5073726;28;20283;-87
2021/12/18 07:39:23;;;;;;;17.87;12.47;;;3.90;98.20;;;;;;5044025;28;20226;-88
2021/12/18 07:41:49;;;;;;;17.47;14.13;;;3.90;98.10;;;;;;5044592;28;20275;-88
2021/12/18 07:44:27;;;;;;;18.83;13.93;;;4.00;97.80;;;;;;5061855;28;20185;-88
2021/12/18 07:46:53;;;;;;;17.63;13.87;;;4.00;97.50;;;;;;5060673;28;20299;-88
2021/12/18 07:49:18;;;;;;;18.70;14.37;;;4.00;97.50;;;;;;5060492;28;20222;-89
2021/12/18 07:51:44;;;;;;;16.23;13.30;;;3.90;98.00;;;;;;5041603;28;20184;-88
2021/12/18 07:54:10;;;;;;;15.97;13.30;;;3.90;98.10;;;;;;5060092;28;20670;-89
2021/12/18 07:56:36;;;;;;;18.70;13.57;;;4.00;97.00;;;;;;5042657;28;20749;-89
2021/12/18 07:59:02;;;;;;;15.37;12.43;;;4.10;97.50;;;;;;5060119;28;20218;-88
2021/12/18 08:01:28;;;;;;;16.07;12.33;;;4.10;96.50;;;;;;5045614;28;20181;-88
2021/12/18 08:03:54;;;;;;;19.07;13.27;;;4.10;96.40;;;;;;5010561;28;20274;-89
2021/12/18 08:06:20;;;;;;;18.90;13.10;;;4.10;96.10;;;;;;5058720;28;20212;-85
2021/12/18 08:08:47;;;;;;;15.50;12.63;;;4.00;96.80;;;;;;5052637;28;20208;-87
2021/12/18 08:11:13;;;;;;;23.43;12.93;;;4.00;96.80;;;;;;5048120;28;20605;-85
2021/12/18 08:13:39;;;;;;;16.50;13.30;;;4.20;96.20;;;;;;5058632;28;20238;-84
2021/12/18 08:16:05;;;;;;;19.07;13.87;;;4.30;95.70;;;;;;5067130;28;20231;-87
2021/12/18 08:18:30;;;;;;;16.93;13.30;;;4.30;95.50;;;;;;5064971;28;20184;-87
2021/12/18 08:20:56;;;;;;;17.07;12.57;;;4.30;95.20;;;;;;5072441;28;20195;-87
2021/12/18 08:23:22;;;;;;;15.60;12.47;;;4.30;95.20;;;;;;5062802;28;20992;-88
2021/12/18 08:25:48;;;;;;;14.30;11.40;;;4.30;95.30;;;;;;5049457;28;20246;-90
2021/12/18 08:28:14;;;;;;;17.13;13.00;;;4.20;95.00;;;;;;5033848;28;20193;-89
2021/12/18 08:30:40;;;;;;;15.33;12.37;;;4.30;95.70;;;;;;5058062;28;20808;-90
2021/12/18 08:33:06;;;;;;;15.33;10.87;;;4.30;95.50;;;;;;5055477;28;20196;-88
2021/12/18 08:35:33;;;;;;;16.67;12.10;;;4.30;95.40;;;;;;5029966;28;20212;-90
2021/12/18 08:38:00;;;;;;;17.10;12.87;;;4.40;95.30;;;;;;5046470;28;20203;-89
2021/12/18 08:40:26;;;;;;;13.63;11.47;;;4.40;94.80;;;;;;5051904;28;20208;-89
2021/12/18 08:42:52;;;;;;;15.90;12.00;;;4.30;95.30;;;;;;5055108;28;20252;-89
2021/12/18 08:45:19;;;;;;;16.07;12.30;;;4.40;95.10;;;;;;5070881;28;20172;-87
2021/12/18 08:47:45;;;;;;;14.37;11.80;;;4.40;94.40;;;;;;5059378;28;20744;-89
2021/12/18 08:50:17;;;;;;;13.57;11.20;;;4.40;94.30;;;;;;5049228;28;20200;-82
2021/12/18 08:52:44;;;;;;;15.97;11.97;;;4.40;94.80;;;;;;5058401;28;20255;-88
2021/12/18 08:55:10;;;;;;;13.87;11.67;;;4.30;94.30;;;;;;5082055;28;20195;-88
2021/12/18 08:57:36;;;;;;;13.60;11.17;;;4.30;94.90;;;;;;5052916;28;20659;-90
2021/12/18 09:00:06;;;;;;;16.13;12.00;;;4.30;94.80;;;;;;5052251;28;20211;-89
2021/12/18 09:02:31;;;;;;;17.20;13.17;;;4.40;94.70;;;;;;5040291;28;20594;-89
2021/12/18 09:04:57;;;;;;;15.33;11.77;;;4.40;94.80;;;;;;5033448;28;20294;-89
2021/12/18 09:07:25;;;;;;;16.10;11.17;;;4.40;94.20;;;;;;5045280;28;20299;-89
2021/12/18 09:09:51;;;;;;;16.07;11.70;;;4.50;95.30;;;;;;5047108;28;20496;-89
2021/12/18 09:12:17;;;;;;;16.20;11.73;;;4.50;94.70;;;;;;5048852;28;20231;-84
2021/12/18 09:14:42;;;;;;;14.93;11.87;;;4.60;95.00;;;;;;5046289;28;20193;-89
2021/12/18 09:17:09;;;;;;;13.83;11.50;;;4.50;94.60;;;;;;5041369;28;20216;-89
2021/12/18 09:19:35;;;;;;;15.90;12.20;;;4.70;94.20;;;;;;5054236;28;20282;-89
2021/12/18 09:22:01;;;;;;;15.10;11.57;;;4.70;93.80;;;;;;5051604;28;20267;-89
2021/12/18 09:24:27;;;;;;;14.43;10.90;;;4.70;93.90;;;;;;5065132;28;20215;-89
2021/12/18 09:26:52;;;;;;;14.90;11.50;;;4.70;94.10;;;;;;5053901;28;20215;-89
2021/12/18 09:29:19;;;;;;;17.33;13.03;;;4.70;93.40;;;;;;5048639;28;20199;-88
2021/12/18 09:31:45;;;;;;;15.70;12.50;;;4.70;93.60;;;;;;5043318;28;20234;-88
2021/12/18 09:34:11;;;;;;;16.23;12.47;;;4.70;93.80;;;;;;5048357;28;20177;-88
2021/12/18 09:36:37;;;;;;;16.93;12.33;;;4.70;93.60;;;;;;5050115;28;20213;-89
2021/12/18 09:39:03;;;;;;;17.23;12.60;;;4.70;93.70;;;;;;5058380;28;20184;-87
2021/12/18 09:41:29;;;;;;;17.60;12.63;;;4.70;94.00;;;;;;5041477;28;20275;-89
2021/12/18 09:43:55;;;;;;;18.47;12.60;;;4.70;94.10;;;;;;5046993;28;20278;-89
2021/12/18 09:46:21;;;;;;;16.03;11.53;;;4.70;93.90;;;;;;5046555;28;20229;-89
2021/12/18 09:48:46;;;;;;;16.93;12.77;;;4.80;93.90;;;;;;5049071;28;20177;-89
2021/12/18 09:51:23;;;;;;;17.23;12.87;;;4.70;93.90;;;;;;5048831;28;20431;-89
2021/12/18 09:53:51;;;;;;;17.93;12.90;;;4.70;94.20;;;;;;5049018;28;20239;-88
2021/12/18 09:56:17;;;;;;;19.10;13.53;;;4.80;93.60;;;;;;5047713;28;20212;-89
2021/12/18 09:58:43;;;;;;;15.57;12.90;;;4.80;93.70;;;;;;5048959;28;20188;-89
2021/12/18 10:01:08;;;;;;;16.70;12.53;;;4.80;93.80;;;;;;5050353;28;20818;-89
2021/12/18 10:03:54;;;;;;;15.10;11.87;;;4.90;93.80;;;;;;5049871;28;20250;-89
2021/12/18 10:06:42;;;;;;;16.50;11.77;;;4.90;93.60;;;;;;5051721;28;20258;-89
2021/12/18 10:09:17;;;;;;;15.17;11.77;;;4.90;93.70;;;;;;5038536;28;20579;-89
2021/12/18 10:11:52;;;;;;;16.03;12.33;;;5.00;93.60;;;;;;5051403;28;20245;-88
2021/12/18 10:14:20;;;;;;;15.43;11.60;;;5.10;92.70;;;;;;5052014;28;20216;-89
2021/12/18 10:16:49;;;;;;;13.77;11.27;;;5.20;91.90;;;;;;5044764;28;20211;-89
2021/12/18 10:19:26;;;;;;;16.47;13.47;;;5.20;91.80;;;;;;5051507;28;20200;-89
2021/12/18 10:22:01;;;;;;;16.17;13.70;;;5.30;92.40;;;;;;5024066;28;20192;-88
2021/12/18 10:24:28;;;;;;;16.17;12.40;;;5.40;91.80;;;;;;5057653;28;20200;-89
2021/12/18 10:26:54;;;;;;;15.53;12.77;;;5.40;91.20;;;;;;5057018;28;20220;-90
2021/12/18 10:29:37;;;;;;;21.43;12.93;;;5.40;91.40;;;;;;5055542;28;20181;-89
2021/12/18 10:32:04;;;;;;;19.67;14.70;;;5.50;91.20;;;;;;5051202;28;20192;-87
2021/12/18 10:34:30;;;;;;;24.67;17.83;;;5.50;91.10;;;;;;5068182;28;20204;-89
2021/12/18 10:37:14;;;;;;;19.57;15.27;;;5.60;90.60;;;;;;5056403;28;20250;-87
2021/12/18 10:39:54;;;;;;;17.63;13.17;;;5.60;90.20;;;;;;5065793;28;20188;-90
2021/12/18 10:42:33;;;;;;;15.30;12.27;;;5.50;90.50;;;;;;5050879;28;20472;-90
2021/12/18 10:45:21;;;;;;;18.07;12.13;;;5.50;90.90;;;;;;5029698;28;20589;-90
2021/12/18 10:47:53;;;;;;;17.03;12.47;;;5.40;90.90;;;;;;5055744;28;20188;-89
2021/12/18 10:50:29;;;;;;;15.03;12.67;;;5.30;91.80;;;;;;5053165;28;20231;-90
2021/12/18 10:52:58;;;;;;;16.60;12.57;;;5.40;91.20;;;;;;5047726;28;20185;-90
2021/12/18 10:55:34;;;;;;;16.90;13.53;;;5.40;91.70;;;;;;5049894;28;20227;-90
2021/12/18 10:58:02;;;;;;;15.40;12.27;;;5.40;91.50;;;;;;5053385;28;20217;-89
2021/12/18 11:00:35;;;;;;;16.63;13.10;;;5.50;91.10;;;;;;5054403;28;20193;-89
2021/12/18 11:03:31;;;;;;;16.40;12.87;;;5.50;91.20;;;;;;5056735;28;20197;-89
2021/12/18 11:06:32;;;;;;;18.00;13.43;;;5.40;91.40;;;;;;5046827;28;20212;-89
2021/12/18 11:09:10;;;;;;;17.70;13.10;;;5.50;91.20;;;;;;5039055;28;20195;-89
2021/12/18 11:14:23;;;;;;;16.13;12.50;;;5.50;92.00;;;;;;5051260;28;20188;-88
2021/12/18 11:17:01;;;;;;;14.43;12.03;;;5.50;91.50;;;;;;5054580;28;20687;-88
2021/12/18 11:19:31;;;;;;;15.13;13.33;;;5.50;91.30;;;;;;5031857;28;20204;-89
2021/12/18 11:22:03;;;;;;;16.57;12.40;;;5.60;91.60;;;;;;5046757;28;20197;-89
2021/12/18 11:24:32;;;;;;;15.10;12.20;;;5.60;90.60;;;;;;5064254;28;20218;-89
2021/12/18 11:27:02;;;;;;;15.77;11.70;;;5.50;90.80;;;;;;5049294;28;20212;-89
2021/12/18 11:29:47;;;;;;;14.67;11.93;;;5.50;91.30;;;;;;5061468;28;20804;-88
2021/12/18 11:32:19;;;;;;;17.23;12.83;;;5.60;90.90;;;;;;5075658;28;20199;-88
2021/12/18 11:34:47;;;;;;;16.53;12.20;;;5.60;91.40;;;;;;5052494;28;20197;-89
2021/12/18 11:37:16;;;;;;;16.83;12.47;;;5.70;91.10;;;;;;5047671;28;20212;-89
2021/12/18 11:39:44;;;;;;;16.77;13.43;;;5.70;90.50;;;;;;5055924;28;20188;-87
2021/12/18 11:42:10;;;;;;;18.07;13.13;;;5.70;90.80;;;;;;5061427;28;20176;-89
2021/12/18 11:44:52;;;;;;;16.53;12.77;;;5.70;90.50;;;;;;5039599;28;20658;-89
2021/12/18 11:47:34;;;;;;;16.00;13.80;;;5.70;90.10;;;;;;5045294;28;20218;-90
2021/12/18 11:50:02;;;;;;;15.33;12.93;;;5.70;90.40;;;;;;5043482;28;20188;-90
2021/12/18 11:52:29;;;;;;;18.80;12.73;;;5.70;90.70;;;;;;5034230;28;20201;-90
2021/12/18 11:54:57;;;;;;;15.13;12.07;;;5.80;90.10;;;;;;5044259;28;20220;-89
2021/12/18 11:57:48;;;;;;;18.03;12.90;;;5.90;89.50;;;;;;5043444;28;20648;-89
2021/12/18 12:00:23;;;;;;;14.83;12.07;;;5.80;89.90;;;;;;5050332;28;20200;-90
2021/12/18 12:02:52;;;;;;;17.07;12.73;;;5.80;89.70;;;;;;5043308;28;20203;-89
2021/12/18 12:05:30;;;;;;;16.57;12.70;;;5.70;90.30;;;;;;5046283;28;20258;-89
2021/12/18 12:08:35;;;;;;;17.87;13.33;;;5.70;90.50;;;;;;5038992;28;20223;-89
2021/12/18 12:11:17;;;;;;;15.80;11.70;;;5.80;90.00;;;;;;5036631;28;20283;-90
2021/12/18 12:14:20;;;;;;;15.10;11.90;;;5.80;89.40;;;;;;5032174;28;20224;-89
2021/12/18 12:16:46;;;;;;;14.57;12.03;;;5.70;90.30;;;;;;5050409;28;20685;-88
2021/12/18 12:19:21;;;;;;;16.97;12.40;;;5.70;90.50;;;;;;5054964;28;20217;-89
2021/12/18 12:21:55;;;;;;;15.93;13.13;;;5.70;90.20;;;;;;5016687;28;20611;-89
2021/12/18 12:24:24;;;;;;;16.27;12.60;;;5.70;90.50;;;;;;5053688;28;20204;-89
2021/12/18 12:26:51;;;;;;;16.97;14.73;;;5.80;90.70;;;;;;5036771;28;20587;-89
2021/12/18 12:29:19;;;;;;;21.77;16.80;;;5.80;90.00;;;;;;5051860;28;20450;-88
2021/12/18 12:32:00;;;;;;;15.07;12.80;;;5.80;90.40;;;;;;5052324;28;20188;-89
2021/12/18 12:34:33;;;;;;;18.70;15.23;;;5.80;90.80;;;;;;5047418;28;20225;-88
2021/12/18 12:37:23;;;;;;;25.70;19.10;;;5.80;90.90;;;;;;5046300;28;20234;-88
2021/12/18 12:40:02;;;;;;;16.00;13.70;;;5.80;91.20;;;;;;5047535;28;20211;-88
2021/12/18 12:42:28;;;;;;;15.20;12.27;;;5.70;91.60;;;;;;5049287;28;20183;-88
2021/12/18 12:45:07;;;;;;;16.10;14.17;;;5.80;90.70;;;;;;5050280;28;20192;-89
2021/12/18 12:47:34;;;;;;;15.53;12.33;;;5.80;90.90;;;;;;5028198;28;20238;-88
2021/12/18 12:50:11;;;;;;;16.63;13.93;;;5.80;91.00;;;;;;5044245;28;20181;-86
2021/12/18 12:52:56;;;;;;;16.03;13.00;;;5.80;91.10;;;;;;5071995;28;20809;-87
2021/12/18 12:55:25;;;;;;;20.10;13.83;;;5.90;91.40;;;;;;5056219;28;20196;-87
2021/12/18 12:58:01;;;;;;;16.57;13.80;;;5.90;91.40;;;;;;5046132;28;20176;-89
2021/12/18 13:00:27;;;;;;;17.70;13.07;;;5.80;91.70;;;;;;5029281;28;20185;-88
2021/12/18 13:03:20;;;;;;;21.97;17.43;;;5.90;91.00;;;;;;5045016;28;20195;-89
2021/12/18 13:05:56;;;;;;;16.27;14.07;;;5.80;90.70;;;;;;5046452;28;20282;-88
2021/12/18 13:08:22;;;;;;;17.03;12.60;;;5.80;90.70;;;;;;5042791;28;20188;-87
2021/12/18 13:10:52;;;;;;;18.03;12.97;;;5.70;91.40;;;;;;5057411;28;20188;-88
2021/12/18 13:13:20;;;;;;;18.80;12.90;;;5.60;91.60;;;;;;5048318;28;20199;-88
2021/12/18 13:15:54;;;;;;;17.93;14.80;;;5.60;91.90;;;;;;5052162;28;20339;-89
2021/12/18 13:18:26;;;;;;;17.53;12.70;;;5.60;92.20;;;;;;5058037;28;20194;-88
2021/12/18 13:21:01;;;;;;;14.70;11.20;;;5.50;92.30;;;;;;5049392;28;20200;-85
2021/12/18 13:23:38;;;;;;;20.77;12.97;;;5.40;92.60;;;;;;5055595;28;20226;-85
2021/12/18 13:26:05;;;;;;;14.10;11.53;;;5.40;93.00;;;;;;5033960;28;20228;-88
2021/12/18 13:28:31;;;;;;;16.40;11.30;;;5.40;92.40;;;;;;5035662;28;20200;-87
2021/12/18 13:30:57;;;;;;;14.33;11.27;;;5.40;92.90;;;;;;5035181;28;20308;-87
2021/12/18 13:33:25;;;;;;;14.67;11.03;;;5.50;92.50;;;;;;5045554;28;20200;-87